sensor_id;sensor_type;location;lat;lon;timestamp;pressure;altitude;pressure_sealevel;temperature;humidity
53300;BME280;39187;48.476;8.310;2023-04-08T00:01:25;91404.59;;;4.92;100.00
53300;BME280;39187;48.476;8.310;2023-04-08T00:03:50;91405.72;;;4.95;100.00
53300;BME280;39187;48.476;8.310;2023-04-08T00:06:16;91397.03;;;4.83;100.00
53300;BME280;39187;48.476;8.310;2023-04-08T00:08:41;91402.53;;;4.50;100.00
53300;BME280;39187;48.476;8.310;2023-04-08T00:11:07;91405.28;;;4.82;100.00
53300;BME280;39187;48.476;8.310;2023-04-08T00:13:32;91403.06;;;4.88;100.00
53300;BME280;39187;48.476;8.310;2023-04-08T00:15:58;91398.91;;;4.87;100.00
53300;BME280;39187;48.476;8.310;2023-04-08T00:18:23;91394.78;;;4.86;100.00
53300;BME280;39187;48.476;8.310;2023-04-08T00:20:49;91407.22;;;4.85;100.00
53300;BME280;39187;48.476;8.310;2023-04-08T00:23:14;91398.47;;;4.63;100.00
53300;BME280;39187;48.476;8.310;2023-04-08T00:25:40;91395.41;;;4.47;100.00
53300;BME280;39187;48.476;8.310;2023-04-08T00:28:05;91394.63;;;4.47;100.00
53300;BME280;39187;48.476;8.310;2023-04-08T00:30:31;91402.91;;;4.45;100.00
53300;BME280;39187;48.476;8.310;2023-04-08T00:32:57;91392.72;;;4.43;100.00
53300;BME280;39187;48.476;8.310;2023-04-08T00:35:22;91396.53;;;4.50;100.00
53300;BME280;39187;48.476;8.310;2023-04-08T00:37:48;91397.28;;;4.50;100.00
53300;BME280;39187;48.476;8.310;2023-04-08T00:40:14;91393.41;;;4.30;100.00
53300;BME280;39187;48.476;8.310;2023-04-08T00:42:39;91386.94;;;4.10;100.00
53300;BME280;39187;48.476;8.310;2023-04-08T00:45:06;91391.53;;;4.27;100.00
53300;BME280;39187;48.476;8.310;2023-04-08T00:47:31;91393.03;;;4.24;100.00
53300;BME280;39187;48.476;8.310;2023-04-08T00:49:57;91387.06;;;4.38;100.00
53300;BME280;39187;48.476;8.310;2023-04-08T00:52:22;91385.59;;;4.40;100.00
53300;BME280;39187;48.476;8.310;2023-04-08T00:54:48;91399.16;;;4.50;100.00
53300;BME280;39187;48.476;8.310;2023-04-08T00:57:13;91396.06;;;4.26;100.00
53300;BME280;39187;48.476;8.310;2023-04-08T00:59:40;91394.81;;;4.02;100.00
53300;BME280;39187;48.476;8.310;2023-04-08T01:02:31;91387.13;;;3.80;100.00
53300;BME280;39187;48.476;8.310;2023-04-08T01:05:10;91397.75;;;3.97;100.00
53300;BME280;39187;48.476;8.310;2023-04-08T01:07:43;91389.84;;;3.97;100.00
53300;BME280;39187;48.476;8.310;2023-04-08T01:10:15;91395.47;;;3.89;100.00
53300;BME280;39187;48.476;8.310;2023-04-08T01:12:45;91396.22;;;3.93;100.00
53300;BME280;39187;48.476;8.310;2023-04-08T01:15:13;91394.75;;;3.95;100.00
53300;BME280;39187;48.476;8.310;2023-04-08T01:17:39;91400.03;;;3.95;100.00
53300;BME280;39187;48.476;8.310;2023-04-08T01:20:06;91398.81;;;3.82;100.00
53300;BME280;39187;48.476;8.310;2023-04-08T01:22:40;91406.00;;;3.89;100.00
53300;BME280;39187;48.476;8.310;2023-04-08T01:25:15;91395.84;;;3.91;100.00
53300;BME280;39187;48.476;8.310;2023-04-08T01:27:42;91395.00;;;3.76;100.00
53300;BME280;39187;48.476;8.310;2023-04-08T01:30:08;91397.31;;;3.85;100.00
53300;BME280;39187;48.476;8.310;2023-04-08T01:32:35;91396.59;;;3.91;100.00
53300;BME280;39187;48.476;8.310;2023-04-08T01:35:02;91395.81;;;3.84;100.00
53300;BME280;39187;48.476;8.310;2023-04-08T01:37:30;91398.50;;;3.94;100.00
53300;BME280;39187;48.476;8.310;2023-04-08T01:39:57;91398.56;;;4.05;100.00
53300;BME280;39187;48.476;8.310;2023-04-08T01:42:26;91398.00;;;3.78;100.00
53300;BME280;39187;48.476;8.310;2023-04-08T01:44:55;91394.97;;;3.69;100.00
53300;BME280;39187;48.476;8.310;2023-04-08T01:47:22;91399.63;;;3.97;100.00
53300;BME280;39187;48.476;8.310;2023-04-08T01:49:50;91402.44;;;4.25;100.00
53300;BME280;39187;48.476;8.310;2023-04-08T01:52:17;91391.41;;;4.06;100.00
53300;BME280;39187;48.476;8.310;2023-04-08T01:54:44;91391.94;;;4.32;100.00
53300;BME280;39187;48.476;8.310;2023-04-08T01:57:14;91399.38;;;4.16;100.00
53300;BME280;39187;48.476;8.310;2023-04-08T01:59:42;91394.56;;;4.36;100.00
53300;BME280;39187;48.476;8.310;2023-04-08T02:02:09;91388.09;;;4.16;100.00
53300;BME280;39187;48.476;8.310;2023-04-08T02:04:35;91394.31;;;3.86;100.00
53300;BME280;39187;48.476;8.310;2023-04-08T02:07:01;91396.63;;;3.98;100.00
53300;BME280;39187;48.476;8.310;2023-04-08T02:09:27;91395.34;;;3.71;100.00
53300;BME280;39187;48.476;8.310;2023-04-08T02:11:53;91395.84;;;3.91;100.00
53300;BME280;39187;48.476;8.310;2023-04-08T02:14:18;91393.63;;;3.96;100.00
53300;BME280;39187;48.476;8.310;2023-04-08T02:20:04;91398.59;;;4.09;100.00
53300;BME280;39187;48.476;8.310;2023-04-08T02:22:17;91396.19;;;3.86;100.00
53300;BME280;39187;48.476;8.310;2023-04-08T02:24:44;91401.38;;;3.75;100.00
53300;BME280;39187;48.476;8.310;2023-04-08T02:27:11;91400.94;;;3.62;100.00
53300;BME280;39187;48.476;8.310;2023-04-08T02:29:39;91398.34;;;3.70;100.00
53300;BME280;39187;48.476;8.310;2023-04-08T02:32:07;91398.84;;;3.89;100.00
53300;BME280;39187;48.476;8.310;2023-04-08T02:34:36;91402.38;;;4.15;100.00
53300;BME280;39187;48.476;8.310;2023-04-08T02:37:03;91403.09;;;4.08;100.00
53300;BME280;39187;48.476;8.310;2023-04-08T02:39:32;91403.78;;;3.98;100.00
53300;BME280;39187;48.476;8.310;2023-04-08T02:41:57;91404.22;;;4.07;100.00
53300;BME280;39187;48.476;8.310;2023-04-08T02:44:23;91405.53;;;3.76;100.00
53300;BME280;39187;48.476;8.310;2023-04-08T02:46:49;91408.94;;;3.80;100.00
53300;BME280;39187;48.476;8.310;2023-04-08T02:49:14;91403.28;;;3.78;100.00
53300;BME280;39187;48.476;8.310;2023-04-08T02:51:40;91401.84;;;3.91;100.00
53300;BME280;39187;48.476;8.310;2023-04-08T02:54:05;91403.91;;;4.19;100.00
53300;BME280;39187;48.476;8.310;2023-04-08T02:56:31;91410.75;;;4.27;100.00
53300;BME280;39187;48.476;8.310;2023-04-08T02:58:56;91408.53;;;4.40;100.00
53300;BME280;39187;48.476;8.310;2023-04-08T03:01:22;91402.44;;;4.25;100.00
53300;BME280;39187;48.476;8.310;2023-04-08T03:03:47;91411.19;;;4.43;100.00
53300;BME280;39187;48.476;8.310;2023-04-08T03:06:13;91414.97;;;4.46;100.00
53300;BME280;39187;48.476;8.310;2023-04-08T03:08:38;91399.94;;;4.54;100.00
53300;BME280;39187;48.476;8.310;2023-04-08T03:11:04;91400.31;;;4.56;100.00
53300;BME280;39187;48.476;8.310;2023-04-08T03:13:29;91399.94;;;4.54;100.00
53300;BME280;39187;48.476;8.310;2023-04-08T03:15:56;91404.84;;;4.59;100.00
53300;BME280;39187;48.476;8.310;2023-04-08T03:18:21;91394.31;;;4.59;100.00
53300;BME280;39187;48.476;8.310;2023-04-08T03:20:47;91391.31;;;4.60;100.00
53300;BME280;39187;48.476;8.310;2023-04-08T03:23:12;91405.59;;;4.56;100.00
53300;BME280;39187;48.476;8.310;2023-04-08T03:25:38;91399.97;;;4.61;100.00
53300;BME280;39187;48.476;8.310;2023-04-08T03:28:03;91395.00;;;4.49;100.00
53300;BME280;39187;48.476;8.310;2023-04-08T03:30:29;91404.09;;;4.58;100.00
53300;BME280;39187;48.476;8.310;2023-04-08T03:32:54;91389.72;;;4.49;100.00
53300;BME280;39187;48.476;8.310;2023-04-08T03:35:20;91397.94;;;4.26;100.00
53300;BME280;39187;48.476;8.310;2023-04-08T03:37:45;91400.47;;;4.08;100.00
53300;BME280;39187;48.476;8.310;2023-04-08T03:40:11;91399.94;;;3.85;100.00
53300;BME280;39187;48.476;8.310;2023-04-08T03:42:37;91411.34;;;4.03;100.00
53300;BME280;39187;48.476;8.310;2023-04-08T03:45:03;91403.78;;;3.94;100.00
53300;BME280;39187;48.476;8.310;2023-04-08T03:47:29;91413.25;;;4.06;100.00
53300;BME280;39187;48.476;8.310;2023-04-08T03:49:55;91408.69;;;3.99;100.00
53300;BME280;39187;48.476;8.310;2023-04-08T03:52:20;91407.25;;;4.09;100.00
53300;BME280;39187;48.476;8.310;2023-04-08T03:54:46;91414.03;;;4.14;100.00
53300;BME280;39187;48.476;8.310;2023-04-08T03:57:12;91399.03;;;4.21;100.00
53300;BME280;39187;48.476;8.310;2023-04-08T03:59:38;91408.47;;;4.22;100.00
53300;BME280;39187;48.476;8.310;2023-04-08T04:02:05;91401.72;;;4.28;100.00
53300;BME280;39187;48.476;8.310;2023-04-08T04:04:31;91406.97;;;4.28;100.00
53300;BME280;39187;48.476;8.310;2023-04-08T04:06:56;91404.69;;;4.23;100.00
53300;BME280;39187;48.476;8.310;2023-04-08T04:09:22;91400.56;;;4.29;100.00
53300;BME280;39187;48.476;8.310;2023-04-08T04:11:47;91409.22;;;4.30;100.00
53300;BME280;39187;48.476;8.310;2023-04-08T04:14:13;91402.84;;;4.31;100.00
53300;BME280;39187;48.476;8.310;2023-04-08T04:16:38;91404.31;;;4.21;100.00
53300;BME280;39187;48.476;8.310;2023-04-08T04:19:04;91409.03;;;3.98;100.00
53300;BME280;39187;48.476;8.310;2023-04-08T04:21:29;91403.88;;;4.09;100.00
53300;BME280;39187;48.476;8.310;2023-04-08T04:23:55;91406.59;;;4.26;100.00
53300;BME280;39187;48.476;8.310;2023-04-08T04:26:21;91404.34;;;4.32;100.00
53300;BME280;39187;48.476;8.310;2023-04-08T04:28:46;91406.25;;;4.38;100.00
53300;BME280;39187;48.476;8.310;2023-04-08T04:31:19;91414.19;;;4.42;100.00
53300;BME280;39187;48.476;8.310;2023-04-08T04:33:46;91411.13;;;4.36;100.00
53300;BME280;39187;48.476;8.310;2023-04-08T04:36:12;91413.38;;;4.27;100.00
53300;BME280;39187;48.476;8.310;2023-04-08T04:38:38;91406.63;;;4.37;100.00
53300;BME280;39187;48.476;8.310;2023-04-08T04:41:03;91404.78;;;4.41;100.00
53300;BME280;39187;48.476;8.310;2023-04-08T04:43:29;91411.53;;;4.42;100.00
53300;BME280;39187;48.476;8.310;2023-04-08T04:45:54;91409.63;;;4.32;100.00
53300;BME280;39187;48.476;8.310;2023-04-08T04:48:21;91412.69;;;4.41;100.00
53300;BME280;39187;48.476;8.310;2023-04-08T04:50:58;91411.09;;;4.22;100.00
53300;BME280;39187;48.476;8.310;2023-04-08T04:53:24;91414.78;;;4.11;100.00
53300;BME280;39187;48.476;8.310;2023-04-08T04:55:50;91418.00;;;3.86;100.00
53300;BME280;39187;48.476;8.310;2023-04-08T04:58:16;91425.03;;;3.68;100.00
53300;BME280;39187;48.476;8.310;2023-04-08T05:00:42;91428.47;;;3.76;100.00
53300;BME280;39187;48.476;8.310;2023-04-08T05:03:07;91428.22;;;3.44;100.00
53300;BME280;39187;48.476;8.310;2023-04-08T05:05:33;91432.03;;;3.50;100.00
53300;BME280;39187;48.476;8.310;2023-04-08T05:07:59;91427.41;;;3.84;100.00
53300;BME280;39187;48.476;8.310;2023-04-08T05:10:24;91421.44;;;3.90;100.00
53300;BME280;39187;48.476;8.310;2023-04-08T05:12:50;91433.03;;;3.86;100.00
53300;BME280;39187;48.476;8.310;2023-04-08T05:15:15;91436.22;;;4.09;100.00
53300;BME280;39187;48.476;8.310;2023-04-08T05:17:41;91438.84;;;4.09;100.00
53300;BME280;39187;48.476;8.310;2023-04-08T05:20:07;91443.78;;;4.14;100.00
53300;BME280;39187;48.476;8.310;2023-04-08T05:22:32;91447.59;;;4.24;100.00
53300;BME280;39187;48.476;8.310;2023-04-08T05:24:58;91446.06;;;4.19;100.00
53300;BME280;39187;48.476;8.310;2023-04-08T05:27:24;91443.88;;;4.32;100.00
53300;BME280;39187;48.476;8.310;2023-04-08T05:29:50;91445.38;;;4.33;100.00
53300;BME280;39187;48.476;8.310;2023-04-08T05:32:15;91444.63;;;4.36;100.00
53300;BME280;39187;48.476;8.310;2023-04-08T05:34:41;91436.31;;;4.27;100.00
53300;BME280;39187;48.476;8.310;2023-04-08T05:37:07;91436.78;;;4.43;100.00
53300;BME280;39187;48.476;8.310;2023-04-08T05:39:32;91442.44;;;4.45;100.00
53300;BME280;39187;48.476;8.310;2023-04-08T05:41:58;91441.72;;;4.52;100.00
53300;BME280;39187;48.476;8.310;2023-04-08T05:44:23;91441.31;;;4.50;100.00
53300;BME280;39187;48.476;8.310;2023-04-08T05:46:49;91443.16;;;4.38;100.00
53300;BME280;39187;48.476;8.310;2023-04-08T05:49:15;91450.66;;;4.33;100.00
53300;BME280;39187;48.476;8.310;2023-04-08T05:51:42;91451.81;;;4.42;100.00
53300;BME280;39187;48.476;8.310;2023-04-08T05:54:07;91452.25;;;4.55;100.00
53300;BME280;39187;48.476;8.310;2023-04-08T05:56:33;91450.31;;;4.38;100.00
53300;BME280;39187;48.476;8.310;2023-04-08T05:58:59;91453.06;;;4.59;100.00
53300;BME280;39187;48.476;8.310;2023-04-08T06:01:25;91467.34;;;4.62;100.00
53300;BME280;39187;48.476;8.310;2023-04-08T06:03:51;91466.28;;;4.70;100.00
53300;BME280;39187;48.476;8.310;2023-04-08T06:06:21;91466.31;;;4.73;100.00
53300;BME280;39187;48.476;8.310;2023-04-08T06:08:46;91465.91;;;4.71;100.00
53300;BME280;39187;48.476;8.310;2023-04-08T06:11:12;91469.69;;;4.77;100.00
53300;BME280;39187;48.476;8.310;2023-04-08T06:13:38;91473.31;;;4.44;100.00
53300;BME280;39187;48.476;8.310;2023-04-08T06:16:11;91467.78;;;4.71;100.00
53300;BME280;39187;48.476;8.310;2023-04-08T06:18:37;91473.81;;;4.71;100.00
53300;BME280;39187;48.476;8.310;2023-04-08T06:21:03;91477.81;;;4.40;100.00
53300;BME280;39187;48.476;8.310;2023-04-08T06:23:28;91474.94;;;4.74;100.00
53300;BME280;39187;48.476;8.310;2023-04-08T06:25:53;91477.19;;;4.68;100.00
53300;BME280;39187;48.476;8.310;2023-04-08T06:28:19;91482.00;;;4.56;100.00
53300;BME280;39187;48.476;8.310;2023-04-08T06:30:45;91472.50;;;4.37;100.00
53300;BME280;39187;48.476;8.310;2023-04-08T06:33:10;91476.75;;;4.56;100.00
53300;BME280;39187;48.476;8.310;2023-04-08T06:35:36;91479.94;;;4.24;100.00
53300;BME280;39187;48.476;8.310;2023-04-08T06:38:04;91486.47;;;4.44;100.00
53300;BME280;39187;48.476;8.310;2023-04-08T06:40:29;91483.13;;;4.48;100.00
53300;BME280;39187;48.476;8.310;2023-04-08T06:42:55;91489.56;;;4.57;100.00
53300;BME280;39187;48.476;8.310;2023-04-08T06:45:21;91484.69;;;4.63;100.00
53300;BME280;39187;48.476;8.310;2023-04-08T06:47:47;91491.63;;;4.92;100.00
53300;BME280;39187;48.476;8.310;2023-04-08T06:50:12;91495.41;;;5.02;100.00
53300;BME280;39187;48.476;8.310;2023-04-08T06:52:38;91485.19;;;4.93;100.00
53300;BME280;39187;48.476;8.310;2023-04-08T06:55:04;91486.03;;;5.11;100.00
53300;BME280;39187;48.476;8.310;2023-04-08T06:57:29;91489.44;;;5.26;100.00
53300;BME280;39187;48.476;8.310;2023-04-08T06:59:55;91481.94;;;5.28;100.00
53300;BME280;39187;48.476;8.310;2023-04-08T07:02:21;91491.63;;;4.96;100.00
53300;BME280;39187;48.476;8.310;2023-04-08T07:04:47;91491.38;;;5.36;100.00
53300;BME280;39187;48.476;8.310;2023-04-08T07:07:13;91485.56;;;4.88;100.00
53300;BME280;39187;48.476;8.310;2023-04-08T07:09:39;91490.59;;;5.18;100.00
53300;BME280;39187;48.476;8.310;2023-04-08T07:12:07;91491.97;;;4.94;100.00
53300;BME280;39187;48.476;8.310;2023-04-08T07:14:33;91493.38;;;4.67;100.00
53300;BME280;39187;48.476;8.310;2023-04-08T07:16:58;91485.75;;;4.51;100.00
53300;BME280;39187;48.476;8.310;2023-04-08T07:19:24;91494.88;;;4.68;100.00
53300;BME280;39187;48.476;8.310;2023-04-08T07:21:50;91491.03;;;4.55;100.00
53300;BME280;39187;48.476;8.310;2023-04-08T07:24:17;91491.97;;;4.91;100.00
53300;BME280;39187;48.476;8.310;2023-04-08T07:26:43;91496.50;;;4.90;100.00
53300;BME280;39187;48.476;8.310;2023-04-08T07:29:08;91503.00;;;5.14;100.00
53300;BME280;39187;48.476;8.310;2023-04-08T07:31:34;91502.97;;;5.07;100.00
53300;BME280;39187;48.476;8.310;2023-04-08T07:34:00;91507.66;;;4.62;100.00
53300;BME280;39187;48.476;8.310;2023-04-08T07:36:25;91509.25;;;4.81;100.00
53300;BME280;39187;48.476;8.310;2023-04-08T07:38:51;91517.19;;;4.88;100.00
53300;BME280;39187;48.476;8.310;2023-04-08T07:41:16;91518.66;;;4.75;100.00
53300;BME280;39187;48.476;8.310;2023-04-08T07:43:42;91525.69;;;4.57;100.00
53300;BME280;39187;48.476;8.310;2023-04-08T07:46:07;91523.47;;;4.62;100.00
53300;BME280;39187;48.476;8.310;2023-04-08T07:48:34;91528.09;;;4.83;100.00
53300;BME280;39187;48.476;8.310;2023-04-08T07:51:07;91526.31;;;4.98;100.00
53300;BME280;39187;48.476;8.310;2023-04-08T07:53:33;91517.00;;;4.49;100.00
53300;BME280;39187;48.476;8.310;2023-04-08T07:56:00;91518.63;;;4.71;100.00
53300;BME280;39187;48.476;8.310;2023-04-08T07:58:25;91526.81;;;4.52;100.00
53300;BME280;39187;48.476;8.310;2023-04-08T08:00:51;91528.34;;;4.57;100.00
53300;BME280;39187;48.476;8.310;2023-04-08T08:03:17;91528.69;;;4.55;100.00
53300;BME280;39187;48.476;8.310;2023-04-08T08:05:42;91533.09;;;4.33;100.00
53300;BME280;39187;48.476;8.310;2023-04-08T08:08:08;91533.91;;;4.41;100.00
53300;BME280;39187;48.476;8.310;2023-04-08T08:10:36;91524.47;;;4.40;100.00
53300;BME280;39187;48.476;8.310;2023-04-08T08:13:03;91530.88;;;4.42;100.00
53300;BME280;39187;48.476;8.310;2023-04-08T08:15:28;91532.69;;;4.28;100.00
53300;BME280;39187;48.476;8.310;2023-04-08T08:17:54;91538.00;;;4.38;100.00
53300;BME280;39187;48.476;8.310;2023-04-08T08:20:19;91537.28;;;4.41;100.00
53300;BME280;39187;48.476;8.310;2023-04-08T08:22:45;91535.88;;;4.58;100.00
53300;BME280;39187;48.476;8.310;2023-04-08T08:25:10;91543.34;;;4.46;100.00
53300;BME280;39187;48.476;8.310;2023-04-08T08:27:36;91547.63;;;4.71;100.00
53300;BME280;39187;48.476;8.310;2023-04-08T08:30:02;91544.13;;;4.53;100.00
53300;BME280;39187;48.476;8.310;2023-04-08T08:32:28;91545.75;;;4.72;100.00
53300;BME280;39187;48.476;8.310;2023-04-08T08:34:54;91544.19;;;4.60;100.00
53300;BME280;39187;48.476;8.310;2023-04-08T08:37:19;91544.69;;;4.83;100.00
53300;BME280;39187;48.476;8.310;2023-04-08T08:39:45;91553.97;;;4.60;100.00
53300;BME280;39187;48.476;8.310;2023-04-08T08:42:21;91554.44;;;4.72;100.00
53300;BME280;39187;48.476;8.310;2023-04-08T08:44:47;91556.16;;;4.51;100.00
53300;BME280;39187;48.476;8.310;2023-04-08T08:47:13;91556.34;;;4.82;100.00
53300;BME280;39187;48.476;8.310;2023-04-08T08:49:39;91563.41;;;4.68;100.00
53300;BME280;39187;48.476;8.310;2023-04-08T08:52:05;91567.94;;;4.67;100.00
53300;BME280;39187;48.476;8.310;2023-04-08T08:54:31;91561.22;;;4.77;100.00
53300;BME280;39187;48.476;8.310;2023-04-08T08:56:57;91564.97;;;4.76;100.00
53300;BME280;39187;48.476;8.310;2023-04-08T08:59:23;91563.16;;;4.87;100.00
53300;BME280;39187;48.476;8.310;2023-04-08T09:01:48;91561.28;;;4.84;100.00
53300;BME280;39187;48.476;8.310;2023-04-08T09:04:20;91570.56;;;4.60;100.00
53300;BME280;39187;48.476;8.310;2023-04-08T09:06:49;91575.47;;;4.69;100.00
53300;BME280;39187;48.476;8.310;2023-04-08T09:09:16;91568.72;;;4.71;100.00
53300;BME280;39187;48.476;8.310;2023-04-08T09:11:46;91568.47;;;4.94;100.00
53300;BME280;39187;48.476;8.310;2023-04-08T09:14:24;91571.91;;;5.02;100.00
53300;BME280;39187;48.476;8.310;2023-04-08T09:16:50;91572.28;;;5.00;100.00
53300;BME280;39187;48.476;8.310;2023-04-08T09:19:17;91571.91;;;5.02;100.00
53300;BME280;39187;48.476;8.310;2023-04-08T09:21:42;91577.19;;;4.98;100.00
53300;BME280;39187;48.476;8.310;2023-04-08T09:24:09;91574.31;;;5.39;100.00
53300;BME280;39187;48.476;8.310;2023-04-08T09:26:50;91577.38;;;5.51;100.00
53300;BME280;39187;48.476;8.310;2023-04-08T09:29:16;91577.78;;;5.50;100.00
53300;BME280;39187;48.476;8.310;2023-04-08T09:31:41;91567.72;;;5.87;100.00
53300;BME280;39187;48.476;8.310;2023-04-08T09:34:12;91577.91;;;5.99;100.00
53300;BME280;39187;48.476;8.310;2023-04-08T09:36:39;91578.69;;;6.25;100.00
53300;BME280;39187;48.476;8.310;2023-04-08T09:39:05;91582.84;;;6.43;100.00
53300;BME280;39187;48.476;8.310;2023-04-08T09:41:35;91584.34;;;5.98;100.00
53300;BME280;39187;48.476;8.310;2023-04-08T09:44:06;91586.19;;;5.91;100.00
53300;BME280;39187;48.476;8.310;2023-04-08T09:46:39;91587.38;;;6.00;100.00
53300;BME280;39187;48.476;8.310;2023-04-08T09:49:10;91591.09;;;5.96;100.00
53300;BME280;39187;48.476;8.310;2023-04-08T09:51:45;91583.56;;;6.09;100.00
53300;BME280;39187;48.476;8.310;2023-04-08T09:54:16;91589.25;;;6.11;100.00
53300;BME280;39187;48.476;8.310;2023-04-08T09:57:16;91584.31;;;5.88;100.00
53300;BME280;39187;48.476;8.310;2023-04-08T10:00:12;91592.25;;;6.02;100.00
53300;BME280;39187;48.476;8.310;2023-04-08T10:03:26;91586.25;;;6.37;100.00
53300;BME280;39187;48.476;8.310;2023-04-08T10:05:26;91594.03;;;5.62;100.00
53300;BME280;39187;48.476;8.310;2023-04-08T10:07:52;91603.50;;;5.78;100.00
53300;BME280;39187;48.476;8.310;2023-04-08T10:10:20;91601.63;;;5.82;100.00
53300;BME280;39187;48.476;8.310;2023-04-08T10:12:47;91601.59;;;5.68;99.89
53300;BME280;39187;48.476;8.310;2023-04-08T10:15:30;91588.78;;;5.77;98.58
53300;BME280;39187;48.476;8.310;2023-04-08T10:20:47;91593.44;;;6.36;97.52
53300;BME280;39187;48.476;8.310;2023-04-08T10:23:14;91600.22;;;6.30;93.73
53300;BME280;39187;48.476;8.310;2023-04-08T10:30:45;91579.28;;;7.42;88.56
53300;BME280;39187;48.476;8.310;2023-04-08T10:33:19;91582.75;;;7.29;89.42
53300;BME280;39187;48.476;8.310;2023-04-08T10:35:58;91583.44;;;7.36;89.57
53300;BME280;39187;48.476;8.310;2023-04-08T10:38:24;91589.69;;;7.81;86.74
53300;BME280;39187;48.476;8.310;2023-04-08T10:40:49;91591.78;;;7.35;81.66
53300;BME280;39187;48.476;8.310;2023-04-08T10:43:16;91583.84;;;7.31;81.54
53300;BME280;39187;48.476;8.310;2023-04-08T10:45:42;91597.22;;;6.71;88.25
53300;BME280;39187;48.476;8.310;2023-04-08T10:50:37;91592.66;;;6.85;86.86
53300;BME280;39187;48.476;8.310;2023-04-08T10:53:04;91595.69;;;6.77;85.49
53300;BME280;39187;48.476;8.310;2023-04-08T10:55:29;91588.47;;;7.09;85.09
53300;BME280;39187;48.476;8.310;2023-04-08T10:58:07;91587.97;;;7.43;83.11
53300;BME280;39187;48.476;8.310;2023-04-08T11:00:35;91587.13;;;7.63;83.17
53300;BME280;39187;48.476;8.310;2023-04-08T11:03:06;91585.94;;;7.79;82.31
53300;BME280;39187;48.476;8.310;2023-04-08T11:05:32;91586.41;;;7.59;82.07
53300;BME280;39187;48.476;8.310;2023-04-08T11:07:59;91583.56;;;7.95;80.84
53300;BME280;39187;48.476;8.310;2023-04-08T11:10:25;91584.34;;;7.95;80.44
53300;BME280;39187;48.476;8.310;2023-04-08T11:12:55;91585.69;;;7.48;80.01
53300;BME280;39187;48.476;8.310;2023-04-08T11:15:23;91580.31;;;7.62;77.44
53300;BME280;39187;48.476;8.310;2023-04-08T11:17:49;91573.59;;;7.47;79.55
53300;BME280;39187;48.476;8.310;2023-04-08T11:20:14;91576.78;;;7.90;76.48
53300;BME280;39187;48.476;8.310;2023-04-08T11:22:41;91578.56;;;8.07;76.27
53300;BME280;39187;48.476;8.310;2023-04-08T11:25:07;91583.41;;;7.54;78.75
53300;BME280;39187;48.476;8.310;2023-04-08T11:27:34;91583.09;;;7.31;75.42
53300;BME280;39187;48.476;8.310;2023-04-08T11:30:01;91590.78;;;6.82;78.61
53300;BME280;39187;48.476;8.310;2023-04-08T11:32:27;91587.34;;;7.03;78.66
53300;BME280;39187;48.476;8.310;2023-04-08T11:34:54;91587.28;;;7.17;77.32
53300;BME280;39187;48.476;8.310;2023-04-08T11:37:19;91586.16;;;7.18;75.31
53300;BME280;39187;48.476;8.310;2023-04-08T11:39:45;91581.59;;;7.30;71.03
53300;BME280;39187;48.476;8.310;2023-04-08T11:42:31;91576.50;;;7.74;70.34
53300;BME280;39187;48.476;8.310;2023-04-08T11:44:57;91580.06;;;7.39;69.38
53300;BME280;39187;48.476;8.310;2023-04-08T11:47:33;91576.59;;;7.49;67.94
53300;BME280;39187;48.476;8.310;2023-04-08T11:49:59;91577.28;;;7.68;66.46
53300;BME280;39187;48.476;8.310;2023-04-08T11:52:45;91575.00;;;7.73;67.40
53300;BME280;39187;48.476;8.310;2023-04-08T11:55:24;91580.06;;;7.39;69.16
53300;BME280;39187;48.476;8.310;2023-04-08T11:57:50;91587.84;;;7.75;70.97
53300;BME280;39187;48.476;8.310;2023-04-08T12:00:19;91587.88;;;7.71;71.51
53300;BME280;39187;48.476;8.310;2023-04-08T12:02:45;91585.69;;;7.45;69.93
53300;BME280;39187;48.476;8.310;2023-04-08T12:05:14;91593.75;;;7.09;72.49
53300;BME280;39187;48.476;8.310;2023-04-08T12:07:41;91588.41;;;7.27;73.42
53300;BME280;39187;48.476;8.310;2023-04-08T12:10:07;91580.91;;;7.08;74.28
53300;BME280;39187;48.476;8.310;2023-04-08T12:12:34;91585.31;;;7.46;72.26
53300;BME280;39187;48.476;8.310;2023-04-08T12:14:59;91580.78;;;7.47;69.89
53300;BME280;39187;48.476;8.310;2023-04-08T12:17:25;91595.56;;;7.34;66.90
53300;BME280;39187;48.476;8.310;2023-04-08T12:19:50;91587.63;;;7.30;69.41
53300;BME280;39187;48.476;8.310;2023-04-08T12:22:16;91583.16;;;7.06;71.15
53300;BME280;39187;48.476;8.310;2023-04-08T12:24:41;91585.03;;;7.12;73.90
53300;BME280;39187;48.476;8.310;2023-04-08T12:27:07;91587.66;;;7.19;72.20
53300;BME280;39187;48.476;8.310;2023-04-08T12:29:33;91594.53;;;6.89;73.11
53300;BME280;39187;48.476;8.310;2023-04-08T12:31:58;91585.84;;;6.92;74.34
53300;BME280;39187;48.476;8.310;2023-04-08T12:34:24;91585.81;;;7.16;75.52
53300;BME280;39187;48.476;8.310;2023-04-08T12:36:49;91587.63;;;7.41;72.97
53300;BME280;39187;48.476;8.310;2023-04-08T12:39:15;91585.31;;;7.53;73.64
53300;BME280;39187;48.476;8.310;2023-04-08T12:41:41;91580.44;;;7.34;73.80
53300;BME280;39187;48.476;8.310;2023-04-08T12:44:06;91586.06;;;7.43;73.79
53300;BME280;39187;48.476;8.310;2023-04-08T12:46:32;91585.00;;;7.34;73.06
53300;BME280;39187;48.476;8.310;2023-04-08T12:48:58;91586.59;;;7.03;73.87
53300;BME280;39187;48.476;8.310;2023-04-08T12:51:24;91581.66;;;7.08;74.92
53300;BME280;39187;48.476;8.310;2023-04-08T12:53:53;91583.19;;;6.88;74.53
53300;BME280;39187;48.476;8.310;2023-04-08T12:56:19;91586.50;;;7.31;73.65
53300;BME280;39187;48.476;8.310;2023-04-08T12:58:45;91586.19;;;7.15;73.32
53300;BME280;39187;48.476;8.310;2023-04-08T13:01:11;91593.66;;;7.38;73.18
53300;BME280;39187;48.476;8.310;2023-04-08T13:03:36;91591.13;;;6.92;75.00
53300;BME280;39187;48.476;8.310;2023-04-08T13:06:02;91584.69;;;7.10;74.56
53300;BME280;39187;48.476;8.310;2023-04-08T13:08:27;91588.47;;;6.99;74.66
53300;BME280;39187;48.476;8.310;2023-04-08T13:10:53;91599.44;;;6.94;73.24
53300;BME280;39187;48.476;8.310;2023-04-08T13:13:19;91589.22;;;7.10;72.43
53300;BME280;39187;48.476;8.310;2023-04-08T13:15:45;91591.88;;;6.85;72.74